Flight Track Log - Related Links

Times and Time Zones

All times are in EDT time to prevent confusion due to time zone crossing. See the XOJ552 flight status page for this flight to view local times or setup timezone preferences in your user account.

Time Position Orientation Groundspeed Altitude Reporting Facility
EDT Latitude Longitude Course Direction KTS MPH feet Rate Location/Type
Wed 06:50:26 PM 37.7333 -122.3833 256° West 264 304 8,700  Level Northern Cal TRACON
Wed 06:51:26 PM 37.6667 -122.4167 202° Southwest 307 353 10,000 821 Climbing Northern Cal TRACON
Wed 06:52:23 PM 37.5908 -122.4361 191° South 311 358 10,300 1,678 Climbing Oakland Center
Wed 06:53:24 PM 37.4981 -122.4553 189° South 336 387 13,300 3,541 Climbing Oakland Center
Wed 06:54:00 PM 37.2467 -122.2701 107° East  Level FlightAware Approximate
Wed 06:54:25 PM 37.3994 -122.3653 144° Southeast 370 426 17,500  Level Oakland Center
Wed 06:55:27 PM 37.3225 -122.2781 138° Southeast 373 429 20,400 2,683 Climbing Oakland Center
Wed 06:56:28 PM 37.2406 -122.1853 138° Southeast 393 452 23,000 2,488 Climbing Oakland Center
Wed 06:57:30 PM 37.1536 -122.0892 139° Southeast 412 474 25,500 2,390 Climbing Oakland Center
Wed 06:58:31 PM 37.0653 -121.9903 138° Southeast 422 486 27,900 2,341 Climbing Oakland Center
Wed 06:59:33 PM 36.9756 -121.8889 138° Southeast 432 497 30,300 2,146 Climbing Oakland Center
Wed 07:00:34 PM 36.8864 -121.7894 138° Southeast 432 497 32,300 1,317 Climbing Oakland Center
Wed 07:01:36 PM 36.7933 -121.6908 140° Southeast 436 502 33,000 341 Climbing Oakland Center
Wed 07:02:37 PM 36.6778 -121.5656 139° Southeast 449 517 33,000  Level Oakland Center
Wed 07:03:39 PM 36.5836 -121.4594 138° Southeast 455 524 33,000 -49 Level Oakland Center
Wed 07:04:40 PM 36.4878 -121.3553 139° Southeast 457 526 32,900  Descending Oakland Center
Wed 07:05:41 PM 36.3922 -121.2494 138° Southeast 458 527 33,000 49 Climbing Oakland Center
Wed 07:06:43 PM 36.2967 -121.1461 139° Southeast 458 527 33,000  Level Oakland Center
Wed 07:07:44 PM 36.2003 -121.0431 139° Southeast 458 527 33,000  Level Oakland Center
Wed 07:08:46 PM 36.1039 -120.9392 139° Southeast 459 528 33,000  Level Oakland Center
Wed 07:09:47 PM 36.0078 -120.8344 139° Southeast 459 528 33,000  Level Oakland Center
Wed 07:10:49 PM 35.8933 -120.7111 139° Southeast 456 525 33,000  Level Oakland Center
Wed 07:11:50 PM 35.7969 -120.6078 139° Southeast 457 526 33,000  Level Oakland Center
Wed 07:12:52 PM 35.7006 -120.5061 139° Southeast 456 525 33,000  Level Oakland Center
Wed 07:13:49 PM 35.6217 -120.4231 139° Southeast 459 528 33,000  Level Los Angeles Center
Wed 07:14:51 PM 35.5044 -120.3008 140° Southeast 459 528 33,000  Level Los Angeles Center
Wed 07:15:53 PM 35.4094 -120.1958 138° Southeast 463 533 33,000  Level Los Angeles Center
Wed 07:16:55 PM 35.3069 -120.0869 139° Southeast 463 533 33,000 -629 Level Los Angeles Center
Wed 07:17:57 PM 35.2108 -119.9881 140° Southeast 453 521 31,700 -1,839 Descending Los Angeles Center
Wed 07:18:59 PM 35.1133 -119.8864 140° Southeast 457 526 29,200 -2,371 Descending Los Angeles Center
Wed 07:20:01 PM 35.0256 -119.7728 133° Southeast 462 532 26,800 -2,371 Descending Los Angeles Center
Wed 07:21:03 PM 34.9411 -119.6578 132° Southeast 457 526 24,300 -2,323 Descending Los Angeles Center
Wed 07:22:05 PM 34.8594 -119.5486 132° Southeast 438 504 22,000 -2,371 Descending Los Angeles Center
Wed 07:23:07 PM 34.7678 -119.4250 132° Southeast 413 475 19,400 -2,274 Descending Los Angeles Center
Wed 07:24:09 PM 34.6947 -119.3278 132° Southeast 394 453 17,300 -1,984 Descending Los Angeles Center
Wed 07:25:11 PM 34.6242 -119.2339 132° Southeast 379 436 15,300 -1,887 Descending Los Angeles Center
Wed 07:26:13 PM 34.5550 -119.1456 134° Southeast 356 410 13,400 -1,839 Descending Los Angeles Center
Wed 07:27:15 PM 34.4936 -119.0642 132° Southeast 327 376 11,500 -1,161 Descending Los Angeles Center
Wed 07:28:17 PM 34.4369 -118.9889 132° Southeast 301 346 11,000 -677 Descending Los Angeles Center
Wed 07:29:19 PM 34.3722 -118.9014 132° Southeast 291 335 10,100 -1,152 Descending Los Angeles Center
Wed 07:30:22 PM 34.3814 -118.8094 83° East 284 327 8,600 -1,488 Descending Los Angeles Center
Wed 07:31:24 PM 34.4008 -118.7167 76° East 297 342 7,000 -1,306 Descending Los Angeles Center
Wed 07:32:26 PM 34.3800 -118.6347 107° East 267 307 5,900 -968 Descending Los Angeles Center
Wed 07:33:28 PM 34.3647 -118.5592 104° East 237 273 5,000 -857 Descending Los Angeles Center
Wed 07:35:00 PM 34.3167 -118.5000 135° Southeast 141 162 3,700 -829 Descending Southern California TRACON
Wed 07:35:31 PM 34.3056 -118.4994 178° South 160 184 3,300 -1,097 Descending Los Angeles Center
Wed 07:36:33 PM 34.2628 -118.4964 177° South 137 158 2,000 -968 Descending Los Angeles Center
Wed 07:37:35 PM 34.2256 -118.4933 176° South 131 151 1,300 -677 Descending Los Angeles Center
Wed 07:39:00 PM 34.2098 -118.4900 180° South  Level Estimated
Wed 07:46:00 PM 34.2098 -118.4900 180° South  Level Estimated
Wed 07:47:00 PM 34.2098 -118.4900 180° South  Level Estimated

Login

Don't have an account? Register now (free) for customized features, flight alerts, and more!